Time;durP1;ratioP1;P1;durP2;ratioP2;P2;SDS_P1;SDS_P2;PMS_P1;PMS_P2;Temp;Humidity;BMP_temperature;BMP_pressure;BME280_temperature;BME280_humidity;BME280_pressure;Samples;Min_cycle;Max_cycle;Signal;HPM_P1;HPM_P2
2022/01/06 00:01:57;;;;;;;13.90;7.57;;;;;;;;;;5033001;28;20385;-77
2022/01/06 00:04:24;;;;;;;14.90;6.85;;;;;;;;;;5034052;28;20442;-77
2022/01/06 00:06:54;;;;;;;16.88;6.80;;;;;;;;;;5016528;28;20469;-80
2022/01/06 00:09:24;;;;;;;13.67;6.90;;;;;;;;;;5032883;28;20087;-76
2022/01/06 00:11:51;;;;;;;17.63;6.20;;;;;;;;;;5032761;28;20049;-76
2022/01/06 00:14:35;;;;;;;10.65;5.97;;;;;;;;;;5032718;28;20042;-76
2022/01/06 00:17:40;;;;;;;12.88;5.28;;;;;;;;;;5033812;28;20215;-75
2022/01/06 00:25:27;;;;;;;12.13;5.93;;;;;;;;;;5032698;28;20085;-75
2022/01/06 00:27:54;;;;;;;11.63;5.85;;;;;;;;;;5034247;28;20125;-76
2022/01/06 00:30:22;;;;;;;13.95;5.78;;;;;;;;;;5033030;28;20033;-75
2022/01/06 00:32:51;;;;;;;14.85;6.38;;;;;;;;;;5032991;28;20135;-76
2022/01/06 00:35:18;;;;;;;17.02;6.85;;;;;;;;;;5034108;28;20037;-80
2022/01/06 00:37:54;;;;;;;16.27;6.18;;;;;;;;;;5033913;28;20116;-76
2022/01/06 00:40:21;;;;;;;13.75;6.32;;;;;;;;;;5016688;28;20053;-80
2022/01/06 00:42:49;;;;;;;14.68;6.68;;;;;;;;;;5016222;28;20053;-75
2022/01/06 00:45:17;;;;;;;10.85;6.25;;;;;;;;;;5032408;28;20067;-77
2022/01/06 00:47:47;;;;;;;11.80;6.15;;;;;;;;;;5033821;28;20128;-76
2022/01/06 00:50:14;;;;;;;19.17;6.65;;;;;;;;;;5033274;28;20041;-80
2022/01/06 00:52:42;;;;;;;16.13;6.80;;;;;;;;;;5033690;28;20037;-81
2022/01/06 00:55:10;;;;;;;14.38;6.63;;;;;;;;;;5016105;28;20052;-77
2022/01/06 00:57:38;;;;;;;15.48;7.20;;;;;;;;;;5015847;28;20049;-80
2022/01/06 01:00:06;;;;;;;16.38;6.60;;;;;;;;;;5033531;28;20069;-80
2022/01/06 01:02:35;;;;;;;17.00;7.05;;;;;;;;;;5033051;28;20045;-81
2022/01/06 01:05:05;;;;;;;14.93;6.95;;;;;;;;;;5033641;28;20073;-76
2022/01/06 01:07:32;;;;;;;15.18;6.88;;;;;;;;;;5015843;28;20116;-76
2022/01/06 01:10:01;;;;;;;16.13;7.00;;;;;;;;;;5032559;28;20044;-76
2022/01/06 01:12:29;;;;;;;17.02;7.15;;;;;;;;;;5033665;28;20124;-75
2022/01/06 01:15:09;;;;;;;15.18;7.40;;;;;;;;;;5031640;28;20045;-76
2022/01/06 01:17:38;;;;;;;20.40;7.57;;;;;;;;;;5032993;28;20065;-75
2022/01/06 01:20:07;;;;;;;15.55;6.88;;;;;;;;;;5015615;28;20059;-76
2022/01/06 01:22:36;;;;;;;18.77;7.15;;;;;;;;;;5045387;28;20152;-81
2022/01/06 01:25:05;;;;;;;19.38;7.18;;;;;;;;;;5052864;28;20057;-76
2022/01/06 01:27:37;;;;;;;21.42;7.88;;;;;;;;;;5051629;28;20038;-76
2022/01/06 01:30:11;;;;;;;16.67;7.57;;;;;;;;;;5052943;28;20056;-76
2022/01/06 01:32:40;;;;;;;14.52;7.03;;;;;;;;;;5051636;28;20040;-75
2022/01/06 01:35:09;;;;;;;19.73;7.82;;;;;;;;;;5051826;28;20100;-75
2022/01/06 01:37:38;;;;;;;15.50;6.88;;;;;;;;;;5051398;28;20456;-76
2022/01/06 01:40:06;;;;;;;18.67;7.20;;;;;;;;;;5051502;28;20412;-76
2022/01/06 01:42:34;;;;;;;18.35;7.47;;;;;;;;;;5052759;28;20127;-76
2022/01/06 01:45:03;;;;;;;19.85;6.50;;;;;;;;;;5051744;28;20037;-76
2022/01/06 01:47:44;;;;;;;18.63;7.28;;;;;;;;;;5053009;28;20488;-80
2022/01/06 01:50:17;;;;;;;18.75;6.60;;;;;;;;;;5052451;28;20075;-76
2022/01/06 01:52:49;;;;;;;19.20;6.95;;;;;;;;;;5035505;28;20119;-81
2022/01/06 01:55:21;;;;;;;11.82;6.53;;;;;;;;;;5051554;28;20068;-76
2022/01/06 01:57:49;;;;;;;11.07;6.53;;;;;;;;;;5051820;28;20083;-75
2022/01/06 02:00:18;;;;;;;11.32;6.25;;;;;;;;;;5051593;28;20055;-75
2022/01/06 02:02:46;;;;;;;10.93;6.13;;;;;;;;;;5052351;28;20416;-80
2022/01/06 02:05:15;;;;;;;16.20;6.22;;;;;;;;;;5052845;28;20049;-75
2022/01/06 02:07:43;;;;;;;15.48;6.13;;;;;;;;;;5035136;28;20052;-75
2022/01/06 02:10:12;;;;;;;13.90;6.07;;;;;;;;;;5051384;28;20073;-75
2022/01/06 02:12:42;;;;;;;18.65;6.40;;;;;;;;;;5034835;28;20132;-75
2022/01/06 02:15:10;;;;;;;13.05;5.60;;;;;;;;;;5051607;28;20033;-75
2022/01/06 02:17:38;;;;;;;11.77;5.68;;;;;;;;;;5052432;28;20424;-76
2022/01/06 02:20:14;;;;;;;13.18;5.20;;;;;;;;;;5052658;28;20041;-81
2022/01/06 02:22:42;;;;;;;9.93;4.53;;;;;;;;;;5052401;28;20519;-76
2022/01/06 02:25:11;;;;;;;12.93;4.25;;;;;;;;;;5051015;28;20052;-80
2022/01/06 02:27:39;;;;;;;10.85;3.60;;;;;;;;;;5050980;28;20045;-75
2022/01/06 02:30:07;;;;;;;10.80;3.92;;;;;;;;;;5053633;28;20041;-74
2022/01/06 02:32:35;;;;;;;10.93;3.88;;;;;;;;;;5055382;28;20048;-75
2022/01/06 02:35:07;;;;;;;11.85;3.80;;;;;;;;;;5056579;28;20037;-75
2022/01/06 02:37:36;;;;;;;10.13;3.20;;;;;;;;;;5056570;28;20040;-76
2022/01/06 02:40:10;;;;;;;9.35;3.40;;;;;;;;;;5056371;28;20049;-80
2022/01/06 02:42:44;;;;;;;4.13;3.22;;;;;;;;;;5056325;28;20095;-80
2022/01/06 02:45:12;;;;;;;8.63;3.47;;;;;;;;;;5055235;28;20049;-76
2022/01/06 02:47:42;;;;;;;6.95;3.28;;;;;;;;;;5056202;28;20555;-80
2022/01/06 02:50:11;;;;;;;6.55;3.35;;;;;;;;;;5055945;28;20068;-80
2022/01/06 02:52:39;;;;;;;9.90;3.15;;;;;;;;;;5054838;28;20045;-75
2022/01/06 02:55:09;;;;;;;10.95;3.08;;;;;;;;;;5038034;28;20424;-75
2022/01/06 02:57:39;;;;;;;7.90;3.22;;;;;;;;;;5056378;28;20120;-76
2022/01/06 03:00:08;;;;;;;6.28;3.70;;;;;;;;;;5038025;28;20047;-79
2022/01/06 03:02:37;;;;;;;7.28;3.30;;;;;;;;;;5037682;28;20658;-75
2022/01/06 03:05:05;;;;;;;11.13;3.85;;;;;;;;;;5056032;28;20408;-80
2022/01/06 03:07:33;;;;;;;8.38;3.50;;;;;;;;;;5038136;28;20136;-76
2022/01/06 03:10:03;;;;;;;6.53;3.05;;;;;;;;;;5056126;28;20040;-76
2022/01/06 03:12:39;;;;;;;12.65;3.60;;;;;;;;;;5055861;28;20065;-79
2022/01/06 03:15:08;;;;;;;10.10;4.03;;;;;;;;;;5054206;28;20041;-75
2022/01/06 03:17:38;;;;;;;9.02;4.10;;;;;;;;;;5055842;28;20045;-80
2022/01/06 03:20:08;;;;;;;11.07;3.92;;;;;;;;;;5054200;28;20408;-75
2022/01/06 03:22:38;;;;;;;8.02;3.90;;;;;;;;;;5054302;28;20519;-76
2022/01/06 03:25:07;;;;;;;12.25;4.20;;;;;;;;;;5055289;28;20067;-75
2022/01/06 03:27:34;;;;;;;12.85;4.80;;;;;;;;;;5054867;28;20045;-75
2022/01/06 03:30:03;;;;;;;9.13;4.55;;;;;;;;;;5055542;28;20048;-76
2022/01/06 03:32:32;;;;;;;16.20;5.30;;;;;;;;;;5054213;28;20396;-80
2022/01/06 03:35:00;;;;;;;10.35;4.70;;;;;;;;;;5055299;28;20177;-74
2022/01/06 03:37:28;;;;;;;12.75;4.97;;;;;;;;;;5053632;28;20507;-76
2022/01/06 03:39:55;;;;;;;11.98;4.85;;;;;;;;;;5053794;28;20045;-75
2022/01/06 03:42:23;;;;;;;13.95;4.65;;;;;;;;;;5053977;28;20052;-80
2022/01/06 03:44:51;;;;;;;15.48;5.05;;;;;;;;;;5053816;28;20045;-75
2022/01/06 03:47:18;;;;;;;11.27;5.20;;;;;;;;;;5055169;28;20128;-75
2022/01/06 03:49:46;;;;;;;10.40;5.13;;;;;;;;;;5037177;28;20093;-75
2022/01/06 03:52:13;;;;;;;10.35;5.35;;;;;;;;;;5037392;28;20041;-75
2022/01/06 03:54:41;;;;;;;10.18;5.13;;;;;;;;;;5055281;28;20389;-75
2022/01/06 03:57:09;;;;;;;15.73;4.95;;;;;;;;;;5054908;28;20041;-75
2022/01/06 03:59:37;;;;;;;13.43;4.95;;;;;;;;;;5037113;28;20053;-74
2022/01/06 04:02:05;;;;;;;17.80;5.25;;;;;;;;;;5036793;28;20423;-79
2022/01/06 04:04:33;;;;;;;9.23;5.28;;;;;;;;;;5054903;28;20041;-75
2022/01/06 04:07:04;;;;;;;12.95;5.28;;;;;;;;;;5053573;28;20045;-75
2022/01/06 04:09:31;;;;;;;17.25;5.43;;;;;;;;;;5054817;28;20464;-80
2022/01/06 04:11:59;;;;;;;9.73;5.05;;;;;;;;;;5036680;28;20044;-79
2022/01/06 04:14:28;;;;;;;15.48;5.85;;;;;;;;;;5036830;28;20137;-75
2022/01/06 04:16:59;;;;;;;8.52;4.90;;;;;;;;;;5036708;28;20091;-75
2022/01/06 04:19:27;;;;;;;11.18;5.50;;;;;;;;;;5054415;28;20148;-76
2022/01/06 04:21:55;;;;;;;14.18;6.05;;;;;;;;;;5053081;28;20154;-75
2022/01/06 04:24:22;;;;;;;13.50;5.22;;;;;;;;;;5052689;28;20119;-75
2022/01/06 04:26:50;;;;;;;14.95;5.95;;;;;;;;;;5052711;28;20053;-76
2022/01/06 04:29:19;;;;;;;10.77;5.43;;;;;;;;;;5037133;28;20402;-76
2022/01/06 04:31:46;;;;;;;14.43;5.00;;;;;;;;;;5052821;28;20135;-76
2022/01/06 04:34:14;;;;;;;11.57;5.30;;;;;;;;;;5053406;28;20116;-75
2022/01/06 04:36:48;;;;;;;12.73;4.28;;;;;;;;;;5054031;28;20492;-75
2022/01/06 04:39:15;;;;;;;11.52;4.40;;;;;;;;;;5053629;28;20511;-76
2022/01/06 04:41:43;;;;;;;10.52;4.43;;;;;;;;;;5052721;28;20052;-79
2022/01/06 04:44:12;;;;;;;10.60;4.47;;;;;;;;;;5052770;28;20037;-75
2022/01/06 04:46:41;;;;;;;9.63;4.75;;;;;;;;;;5054039;28;20106;-75
2022/01/06 04:49:09;;;;;;;11.43;4.45;;;;;;;;;;5052665;28;20079;-75
2022/01/06 04:51:37;;;;;;;13.52;4.82;;;;;;;;;;5051353;28;20051;-76
2022/01/06 04:54:06;;;;;;;11.32;5.20;;;;;;;;;;5053738;28;20037;-75
2022/01/06 04:56:38;;;;;;;12.88;4.78;;;;;;;;;;5053000;28;20047;-75
2022/01/06 04:59:07;;;;;;;9.10;4.50;;;;;;;;;;5035707;28;20449;-75
2022/01/06 05:01:37;;;;;;;13.73;4.95;;;;;;;;;;5052026;28;20506;-75
2022/01/06 05:04:05;;;;;;;15.10;4.93;;;;;;;;;;5052093;28;20098;-76
2022/01/06 05:06:32;;;;;;;9.15;4.45;;;;;;;;;;5052218;28;20047;-75
2022/01/06 05:09:00;;;;;;;12.52;4.68;;;;;;;;;;5053421;28;20127;-75
2022/01/06 05:11:27;;;;;;;8.32;4.50;;;;;;;;;;5052244;28;20159;-75
2022/01/06 05:13:56;;;;;;;10.18;4.57;;;;;;;;;;5053346;28;20060;-75
2022/01/06 05:16:24;;;;;;;9.68;4.60;;;;;;;;;;5052719;28;20045;-76
2022/01/06 05:18:52;;;;;;;8.98;5.05;;;;;;;;;;5053222;28;20432;-76
2022/01/06 05:21:20;;;;;;;9.25;5.28;;;;;;;;;;5051858;28;20064;-75
2022/01/06 05:23:49;;;;;;;12.60;5.10;;;;;;;;;;5053061;28;20099;-75
2022/01/06 05:26:17;;;;;;;16.67;5.40;;;;;;;;;;5052570;28;20508;-75
2022/01/06 05:28:46;;;;;;;14.13;5.50;;;;;;;;;;5053118;28;20037;-76
2022/01/06 05:31:14;;;;;;;13.77;5.13;;;;;;;;;;5053014;28;20075;-75
2022/01/06 05:33:42;;;;;;;10.68;4.97;;;;;;;;;;5035298;28;20045;-76
2022/01/06 05:36:09;;;;;;;11.63;4.75;;;;;;;;;;5051907;28;20045;-75
2022/01/06 05:38:39;;;;;;;8.13;4.40;;;;;;;;;;5052809;28;20056;-76
2022/01/06 05:41:07;;;;;;;8.55;4.35;;;;;;;;;;5051523;28;20052;-76
2022/01/06 05:43:34;;;;;;;9.10;4.40;;;;;;;;;;5052993;28;20508;-74
2022/01/06 05:46:03;;;;;;;11.90;4.80;;;;;;;;;;5035481;28;20076;-75
2022/01/06 05:48:32;;;;;;;9.98;4.03;;;;;;;;;;5052556;28;20048;-76
2022/01/06 05:51:00;;;;;;;14.18;4.05;;;;;;;;;;5051289;28;20044;-80
2022/01/06 05:53:32;;;;;;;8.30;3.20;;;;;;;;;;5052968;28;20041;-75
2022/01/06 05:56:02;;;;;;;7.78;3.50;;;;;;;;;;5051695;28;20037;-76
2022/01/06 05:58:29;;;;;;;10.73;3.80;;;;;;;;;;5051463;28;20144;-75
2022/01/06 06:00:57;;;;;;;17.75;3.80;;;;;;;;;;5051426;28;20057;-76
2022/01/06 06:03:27;;;;;;;6.32;3.03;;;;;;;;;;5051165;28;20376;-76
2022/01/06 06:05:56;;;;;;;9.77;4.30;;;;;;;;;;5052730;28;20079;-75
2022/01/06 06:08:24;;;;;;;8.85;3.40;;;;;;;;;;5052397;28;20041;-76
2022/01/06 06:10:51;;;;;;;10.30;3.83;;;;;;;;;;5051515;28;20048;-76
2022/01/06 06:13:19;;;;;;;8.05;3.50;;;;;;;;;;5052947;28;20045;-76
2022/01/06 06:15:46;;;;;;;6.80;3.45;;;;;;;;;;5050763;28;20389;-76
2022/01/06 06:18:14;;;;;;;7.95;3.40;;;;;;;;;;5034858;28;20037;-80
2022/01/06 06:20:43;;;;;;;7.15;3.45;;;;;;;;;;5034896;28;20041;-74
2022/01/06 06:23:10;;;;;;;8.07;3.80;;;;;;;;;;5050989;28;20048;-76
2022/01/06 06:25:38;;;;;;;10.52;3.30;;;;;;;;;;5052428;28;20056;-74
2022/01/06 06:28:06;;;;;;;8.77;3.22;;;;;;;;;;5050975;28;20390;-75
2022/01/06 06:30:34;;;;;;;11.70;3.30;;;;;;;;;;5051100;28;20041;-79
2022/01/06 06:33:02;;;;;;;10.60;3.65;;;;;;;;;;5051523;28;20041;-79
2022/01/06 06:35:33;;;;;;;6.43;3.45;;;;;;;;;;5050985;28;20045;-74
2022/01/06 06:38:00;;;;;;;8.90;4.30;;;;;;;;;;5051087;28;20043;-79
2022/01/06 06:40:29;;;;;;;13.93;4.53;;;;;;;;;;5052711;28;20051;-76
2022/01/06 06:42:57;;;;;;;6.88;3.13;;;;;;;;;;5052465;28;20044;-79
2022/01/06 06:45:25;;;;;;;5.03;3.65;;;;;;;;;;5052276;28;20045;-75
2022/01/06 06:47:53;;;;;;;9.60;4.03;;;;;;;;;;5052675;28;20041;-78
2022/01/06 06:50:21;;;;;;;9.88;4.28;;;;;;;;;;5034804;28;20075;-75
2022/01/06 06:52:49;;;;;;;16.65;4.95;;;;;;;;;;5050635;28;20049;-77
2022/01/06 06:55:20;;;;;;;10.98;4.70;;;;;;;;;;5051973;28;20041;-78
2022/01/06 06:57:48;;;;;;;8.32;4.55;;;;;;;;;;5050857;28;20052;-76
2022/01/06 07:00:17;;;;;;;9.27;4.68;;;;;;;;;;5051038;28;20079;-75
2022/01/06 07:02:47;;;;;;;9.18;4.78;;;;;;;;;;5038627;28;20065;-80
2022/01/06 07:05:17;;;;;;;7.93;4.03;;;;;;;;;;5014388;28;20045;-78
2022/01/06 07:07:45;;;;;;;11.40;4.90;;;;;;;;;;5031958;28;20118;-78
2022/01/06 07:10:13;;;;;;;14.13;6.05;;;;;;;;;;5036738;28;20029;-74
2022/01/06 07:12:41;;;;;;;9.13;4.95;;;;;;;;;;5034894;28;20044;-77
2022/01/06 07:15:10;;;;;;;16.90;5.00;;;;;;;;;;5033889;28;20109;-79
2022/01/06 07:17:38;;;;;;;12.23;4.38;;;;;;;;;;5053695;28;20048;-74
2022/01/06 07:20:05;;;;;;;8.73;4.32;;;;;;;;;;5043754;28;20477;-72
2022/01/06 07:22:33;;;;;;;13.57;6.43;;;;;;;;;;5047604;28;20117;-72
2022/01/06 07:25:05;;;;;;;15.75;5.95;;;;;;;;;;5039902;28;20045;-77
2022/01/06 07:27:34;;;;;;;15.95;5.30;;;;;;;;;;5043362;28;20121;-74
2022/01/06 07:30:02;;;;;;;7.40;4.05;;;;;;;;;;5042822;28;20573;-72
2022/01/06 07:32:29;;;;;;;9.63;3.67;;;;;;;;;;5034743;28;20086;-76
2022/01/06 07:34:57;;;;;;;8.15;3.90;;;;;;;;;;5030877;28;20078;-73
2022/01/06 07:37:25;;;;;;;10.73;3.35;;;;;;;;;;5033917;28;20052;-73
2022/01/06 07:39:53;;;;;;;9.32;4.00;;;;;;;;;;5017511;28;20401;-81
2022/01/06 07:42:21;;;;;;;12.20;4.15;;;;;;;;;;5033623;28;20594;-76
2022/01/06 07:44:50;;;;;;;11.35;4.90;;;;;;;;;;5033398;28;20116;-81
2022/01/06 07:47:19;;;;;;;11.88;5.60;;;;;;;;;;5038301;28;20056;-72
2022/01/06 07:49:46;;;;;;;11.27;5.72;;;;;;;;;;5049731;28;20047;-80
2022/01/06 07:52:14;;;;;;;12.77;6.60;;;;;;;;;;5050640;28;20048;-75
2022/01/06 07:54:42;;;;;;;15.40;6.78;;;;;;;;;;5047451;28;20033;-74
2022/01/06 07:57:09;;;;;;;14.52;7.55;;;;;;;;;;5039696;28;20038;-76
2022/01/06 07:59:40;;;;;;;10.80;6.28;;;;;;;;;;5033446;28;20370;-73
2022/01/06 08:02:08;;;;;;;16.95;8.30;;;;;;;;;;5034238;28;20056;-80
2022/01/06 08:04:36;;;;;;;22.90;9.35;;;;;;;;;;5041170;28;20049;-73
2022/01/06 08:07:05;;;;;;;22.10;9.27;;;;;;;;;;5052011;28;20040;-81
2022/01/06 08:09:33;;;;;;;17.33;8.85;;;;;;;;;;5054358;28;20041;-74
2022/01/06 08:12:00;;;;;;;17.10;9.27;;;;;;;;;;5051979;28;20511;-75
2022/01/06 08:14:29;;;;;;;25.77;9.93;;;;;;;;;;5053530;28;20103;-74
2022/01/06 08:16:59;;;;;;;17.70;9.35;;;;;;;;;;5054470;28;20540;-75
2022/01/06 08:19:29;;;;;;;21.05;9.77;;;;;;;;;;5053267;28;20496;-74
2022/01/06 08:21:59;;;;;;;20.63;9.40;;;;;;;;;;5053084;28;20055;-80
2022/01/06 08:24:26;;;;;;;15.10;7.75;;;;;;;;;;5052712;28;20041;-76
2022/01/06 08:26:55;;;;;;;18.77;7.72;;;;;;;;;;5053626;28;20597;-75
2022/01/06 08:29:22;;;;;;;15.50;6.97;;;;;;;;;;5052902;28;20045;-74
2022/01/06 08:31:54;;;;;;;14.32;6.65;;;;;;;;;;5053864;28;20135;-76
2022/01/06 08:34:24;;;;;;;20.33;7.13;;;;;;;;;;5052854;28;20555;-81
2022/01/06 08:36:53;;;;;;;14.63;6.85;;;;;;;;;;5053925;28;20410;-75
2022/01/06 08:39:21;;;;;;;13.85;6.57;;;;;;;;;;5053864;28;20045;-75
2022/01/06 08:41:50;;;;;;;19.70;8.15;;;;;;;;;;5036171;28;20080;-76
2022/01/06 08:44:19;;;;;;;15.77;7.72;;;;;;;;;;5052274;28;20063;-81
2022/01/06 08:46:47;;;;;;;15.25;9.05;;;;;;;;;;5052535;28;20102;-75
2022/01/06 08:49:16;;;;;;;27.02;9.60;;;;;;;;;;5052466;28;20041;-74
2022/01/06 08:51:43;;;;;;;16.48;8.45;;;;;;;;;;5052052;28;20116;-81
2022/01/06 08:54:11;;;;;;;23.90;9.55;;;;;;;;;;5052296;28;20447;-76
2022/01/06 08:56:39;;;;;;;20.30;10.38;;;;;;;;;;5053505;28;20049;-74
2022/01/06 08:59:07;;;;;;;22.83;12.93;;;;;;;;;;5053501;28;20041;-81
2022/01/06 09:01:36;;;;;;;25.60;13.20;;;;;;;;;;5052120;28;20132;-76
2022/01/06 09:04:04;;;;;;;25.95;14.50;;;;;;;;;;5053171;28;20045;-76
2022/01/06 09:06:34;;;;;;;23.73;14.43;;;;;;;;;;5036039;28;20492;-75
2022/01/06 09:09:02;;;;;;;26.45;14.95;;;;;;;;;;5053348;28;20047;-75
2022/01/06 09:11:30;;;;;;;27.25;15.57;;;;;;;;;;5053117;28;20041;-76
2022/01/06 09:13:57;;;;;;;29.48;16.90;;;;;;;;;;5051915;28;20389;-80
2022/01/06 09:16:25;;;;;;;25.63;13.82;;;;;;;;;;5051772;28;20063;-80
2022/01/06 09:18:54;;;;;;;18.88;10.30;;;;;;;;;;5051618;28;20404;-76
2022/01/06 09:21:22;;;;;;;17.38;8.93;;;;;;;;;;5053319;28;20459;-80
2022/01/06 09:23:51;;;;;;;14.25;7.18;;;;;;;;;;5051775;28;20060;-81
2022/01/06 09:26:19;;;;;;;12.55;7.63;;;;;;;;;;5051236;28;20057;-74
2022/01/06 09:28:47;;;;;;;11.90;6.65;;;;;;;;;;5052781;28;20032;-81
2022/01/06 09:31:18;;;;;;;14.40;6.03;;;;;;;;;;5053592;28;20067;-75
2022/01/06 09:33:46;;;;;;;14.13;5.88;;;;;;;;;;5035600;28;20522;-74
2022/01/06 09:36:16;;;;;;;12.40;4.72;;;;;;;;;;5052989;28;20048;-81
2022/01/06 09:38:49;;;;;;;12.13;5.15;;;;;;;;;;5051072;28;20052;-74
2022/01/06 09:41:19;;;;;;;8.38;4.90;;;;;;;;;;5035234;28;20132;-75
2022/01/06 09:43:49;;;;;;;14.85;6.25;;;;;;;;;;5051521;28;20055;-76
2022/01/06 09:46:17;;;;;;;15.27;7.00;;;;;;;;;;5052716;28;20052;-75
2022/01/06 09:48:45;;;;;;;12.32;5.95;;;;;;;;;;5052501;28;20047;-74
2022/01/06 09:51:13;;;;;;;13.05;5.50;;;;;;;;;;5052695;28;20041;-75
2022/01/06 09:53:41;;;;;;;14.88;5.78;;;;;;;;;;5052552;28;20033;-76
2022/01/06 09:56:11;;;;;;;14.15;5.50;;;;;;;;;;5034708;28;20528;-74
2022/01/06 09:58:41;;;;;;;14.57;4.88;;;;;;;;;;5051280;28;20139;-81
2022/01/06 10:01:08;;;;;;;11.13;3.92;;;;;;;;;;5052256;28;20053;-76
2022/01/06 10:03:39;;;;;;;11.57;4.20;;;;;;;;;;5051035;28;20040;-75
2022/01/06 10:06:17;;;;;;;8.50;3.63;;;;;;;;;;5051262;28;20033;-81
2022/01/06 10:08:57;;;;;;;8.23;3.70;;;;;;;;;;5052149;28;20047;-76
2022/01/06 10:11:25;;;;;;;10.50;4.47;;;;;;;;;;5052308;28;20033;-81
2022/01/06 10:13:59;;;;;;;10.50;3.95;;;;;;;;;;5052489;28;20041;-75
2022/01/06 10:16:29;;;;;;;7.57;3.97;;;;;;;;;;5050901;28;20120;-76
2022/01/06 10:19:05;;;;;;;12.95;4.97;;;;;;;;;;5034320;28;20535;-75
2022/01/06 10:21:35;;;;;;;9.23;4.63;;;;;;;;;;5051154;28;20037;-74
2022/01/06 10:24:04;;;;;;;8.27;4.30;;;;;;;;;;5064726;23;21042;-76
2022/01/06 10:26:35;;;;;;;11.55;4.80;;;;;;;;;;5052294;28;20106;-75
2022/01/06 10:29:03;;;;;;;13.25;5.75;;;;;;;;;;5032695;28;20492;-71
2022/01/06 10:31:31;;;;;;;15.77;5.05;;;;;;;;;;5030816;28;20148;-75
2022/01/06 10:33:59;;;;;;;13.70;5.47;;;;;;;;;;5032511;28;20045;-73
2022/01/06 10:36:30;;;;;;;11.85;5.47;;;;;;;;;;5032600;28;20052;-69
2022/01/06 10:39:01;;;;;;;15.68;6.70;;;;;;;;;;5032125;28;20042;-70
2022/01/06 10:41:30;;;;;;;15.48;6.13;;;;;;;;;;5031452;28;20045;-69
2022/01/06 10:43:59;;;;;;;17.33;4.95;;;;;;;;;;5032369;28;20519;-71
2022/01/06 10:46:31;;;;;;;8.68;4.72;;;;;;;;;;5032184;28;20069;-71
2022/01/06 10:49:00;;;;;;;11.15;4.53;;;;;;;;;;5032438;28;20049;-76
2022/01/06 10:51:31;;;;;;;19.63;5.70;;;;;;;;;;5033597;28;20141;-72
2022/01/06 10:53:59;;;;;;;11.52;5.30;;;;;;;;;;5035943;28;20121;-76
2022/01/06 10:56:27;;;;;;;10.93;5.00;;;;;;;;;;5036194;28;20064;-75
2022/01/06 10:58:59;;;;;;;13.10;4.28;;;;;;;;;;5034699;28;20487;-71
2022/01/06 11:01:32;;;;;;;13.52;5.50;;;;;;;;;;5035964;28;20080;-69
2022/01/06 11:04:00;;;;;;;14.82;5.15;;;;;;;;;;5034320;28;20500;-69
2022/01/06 11:06:31;;;;;;;12.13;5.97;;;;;;;;;;5035810;28;20124;-73
2022/01/06 11:08:58;;;;;;;26.15;11.80;;;;;;;;;;5035494;28;20056;-72
2022/01/06 11:11:44;;;;;;;23.30;10.70;;;;;;;;;;5035782;28;20067;-72
2022/01/06 11:14:17;;;;;;;21.73;9.60;;;;;;;;;;5035628;28;20041;-72
2022/01/06 11:16:45;;;;;;;17.33;8.65;;;;;;;;;;5035548;28;20562;-76
2022/01/06 11:19:13;;;;;;;21.83;10.25;;;;;;;;;;5034183;28;20116;-71
2022/01/06 11:21:45;;;;;;;17.95;9.00;;;;;;;;;;5035568;28;20084;-74
2022/01/06 11:24:16;;;;;;;19.17;8.57;;;;;;;;;;5035350;28;20057;-71
2022/01/06 11:26:56;;;;;;;17.05;8.45;;;;;;;;;;5035396;28;20456;-71
2022/01/06 11:29:28;;;;;;;22.52;10.38;;;;;;;;;;5034306;28;20045;-76
2022/01/06 11:31:57;;;;;;;13.90;8.55;;;;;;;;;;5035465;28;20083;-71
2022/01/06 11:34:29;;;;;;;16.20;9.10;;;;;;;;;;5035436;28;20045;-71
2022/01/06 11:36:57;;;;;;;20.25;8.82;;;;;;;;;;5035177;28;20048;-71
2022/01/06 11:39:28;;;;;;;17.50;8.25;;;;;;;;;;5034986;28;20068;-71
2022/01/06 11:41:57;;;;;;;13.95;8.05;;;;;;;;;;5035236;28;20049;-73
2022/01/06 11:44:29;;;;;;;16.98;8.93;;;;;;;;;;5035407;28;20060;-75
2022/01/06 11:47:00;;;;;;;16.98;8.07;;;;;;;;;;5034908;28;20049;-71
2022/01/06 11:49:36;;;;;;;15.57;7.13;;;;;;;;;;5035096;28;20051;-75
2022/01/06 11:52:09;;;;;;;18.17;8.07;;;;;;;;;;5034751;28;20069;-71
2022/01/06 11:54:55;;;;;;;16.47;7.07;;;;;;;;;;5034979;28;20041;-74
2022/01/06 11:57:31;;;;;;;16.63;6.88;;;;;;;;;;5034977;28;20041;-71
2022/01/06 12:00:00;;;;;;;14.57;6.32;;;;;;;;;;5034958;28;20084;-76
2022/01/06 12:02:32;;;;;;;14.52;6.10;;;;;;;;;;5034499;28;20049;-71
2022/01/06 12:05:01;;;;;;;16.20;5.80;;;;;;;;;;5035120;28;20041;-71
2022/01/06 12:07:28;;;;;;;15.50;6.30;;;;;;;;;;5034771;28;20485;-76
2022/01/06 12:09:57;;;;;;;11.52;6.03;;;;;;;;;;5034815;28;20075;-75
2022/01/06 12:12:40;;;;;;;13.38;5.97;;;;;;;;;;5034616;28;20045;-70
2022/01/06 12:15:15;;;;;;;10.98;5.40;;;;;;;;;;5034476;28;20037;-74
2022/01/06 12:17:53;;;;;;;12.60;5.00;;;;;;;;;;5034708;28;20496;-72
2022/01/06 12:20:30;;;;;;;10.77;5.00;;;;;;;;;;5034776;28;20041;-71
2022/01/06 12:22:57;;;;;;;18.75;5.32;;;;;;;;;;5034726;28;20116;-70
2022/01/06 12:25:26;;;;;;;10.73;5.22;;;;;;;;;;5033054;28;20066;-71
2022/01/06 12:27:56;;;;;;;11.98;5.00;;;;;;;;;;5032787;28;20049;-70
2022/01/06 12:30:26;;;;;;;13.57;4.50;;;;;;;;;;5034778;28;20435;-71
2022/01/06 12:32:58;;;;;;;13.48;5.05;;;;;;;;;;5034434;28;20044;-76
2022/01/06 12:35:40;;;;;;;11.25;4.63;;;;;;;;;;5034442;28;20099;-70
2022/01/06 12:38:09;;;;;;;11.93;4.40;;;;;;;;;;5033100;28;20038;-71
2022/01/06 12:40:41;;;;;;;10.15;4.35;;;;;;;;;;5034126;28;20056;-71
2022/01/06 12:43:31;;;;;;;9.20;4.65;;;;;;;;;;5034275;28;20041;-74
2022/01/06 12:46:03;;;;;;;14.13;4.40;;;;;;;;;;5034064;28;20045;-74
2022/01/06 12:48:32;;;;;;;10.88;4.70;;;;;;;;;;5034050;28;20041;-71
2022/01/06 12:51:00;;;;;;;12.95;4.40;;;;;;;;;;5033956;28;20124;-71
2022/01/06 12:53:30;;;;;;;24.48;7.32;;;;;;;;;;5033945;28;20120;-77
2022/01/06 12:55:58;;;;;;;12.23;5.10;;;;;;;;;;5033846;28;20504;-72
2022/01/06 12:58:32;;;;;;;15.05;4.55;;;;;;;;;;5034067;28;20464;-69
2022/01/06 13:01:01;;;;;;;10.63;4.63;;;;;;;;;;5032354;28;20459;-74
2022/01/06 13:03:30;;;;;;;10.45;4.28;;;;;;;;;;5032169;28;20045;-75
2022/01/06 13:05:59;;;;;;;9.52;4.53;;;;;;;;;;5031612;28;20041;-71
2022/01/06 13:08:28;;;;;;;12.27;4.40;;;;;;;;;;5033453;28;20568;-74
2022/01/06 13:11:03;;;;;;;18.75;5.95;;;;;;;;;;5033628;28;20045;-76
2022/01/06 13:13:31;;;;;;;11.35;4.28;;;;;;;;;;5032795;28;20134;-76
2022/01/06 13:15:58;;;;;;;10.52;4.60;;;;;;;;;;5033194;28;20037;-71
2022/01/06 13:18:27;;;;;;;12.07;4.20;;;;;;;;;;5033535;28;20045;-71
2022/01/06 13:21:01;;;;;;;10.98;4.35;;;;;;;;;;5033523;28;20046;-76
2022/01/06 13:26:09;;;;;;;15.73;4.20;;;;;;;;;;5032994;28;20135;-71
2022/01/06 13:28:37;;;;;;;13.65;4.80;;;;;;;;;;5032880;28;20050;-76
2022/01/06 13:31:14;;;;;;;11.52;4.28;;;;;;;;;;5033190;28;20048;-77
2022/01/06 13:33:42;;;;;;;9.85;4.25;;;;;;;;;;5033102;28;20547;-74
2022/01/06 13:36:10;;;;;;;11.60;4.50;;;;;;;;;;5032103;28;20473;-71
2022/01/06 13:38:41;;;;;;;12.73;4.72;;;;;;;;;;5031862;28;20049;-71
2022/01/06 13:41:09;;;;;;;13.15;4.05;;;;;;;;;;5032928;28;20037;-74
2022/01/06 13:43:39;;;;;;;14.02;4.22;;;;;;;;;;5033033;28;20045;-71
2022/01/06 13:46:26;;;;;;;12.20;4.00;;;;;;;;;;5033069;28;20048;-70
2022/01/06 13:51:45;;;;;;;13.13;4.30;;;;;;;;;;5030870;28;20053;-71
2022/01/06 13:54:15;;;;;;;13.68;4.60;;;;;;;;;;5031502;28;20114;-70
2022/01/06 13:56:42;;;;;;;9.73;4.00;;;;;;;;;;5031656;28;20508;-74
2022/01/06 13:59:12;;;;;;;17.13;4.75;;;;;;;;;;5033183;28;20412;-71
2022/01/06 14:01:42;;;;;;;10.75;4.00;;;;;;;;;;5032692;28;20484;-74
2022/01/06 14:04:20;;;;;;;17.95;3.70;;;;;;;;;;5030861;28;20394;-74
2022/01/06 14:06:49;;;;;;;8.32;3.03;;;;;;;;;;5032469;28;20073;-71
2022/01/06 14:09:18;;;;;;;11.73;3.47;;;;;;;;;;5032721;28;20044;-74
2022/01/06 14:11:46;;;;;;;9.10;3.28;;;;;;;;;;5032892;28;20095;-75
2022/01/06 14:14:14;;;;;;;13.02;3.60;;;;;;;;;;5032455;28;20033;-71
2022/01/06 14:16:42;;;;;;;9.40;3.22;;;;;;;;;;5032264;28;20037;-70
2022/01/06 14:19:09;;;;;;;12.57;3.42;;;;;;;;;;5032655;28;20488;-76
2022/01/06 14:21:37;;;;;;;14.77;4.13;;;;;;;;;;5032760;28;20133;-74
2022/01/06 14:24:05;;;;;;;12.73;3.60;;;;;;;;;;5032891;28;20067;-71
2022/01/06 14:26:35;;;;;;;8.77;3.75;;;;;;;;;;5036719;28;20068;-71
2022/01/06 14:29:05;;;;;;;10.75;4.18;;;;;;;;;;5036728;28;20396;-70
2022/01/06 14:31:33;;;;;;;12.15;4.10;;;;;;;;;;5035069;28;20500;-71
2022/01/06 14:34:01;;;;;;;9.32;3.70;;;;;;;;;;5036531;28;20038;-70
2022/01/06 14:36:29;;;;;;;8.82;3.60;;;;;;;;;;5036253;28;20096;-76
2022/01/06 14:38:59;;;;;;;14.30;4.78;;;;;;;;;;5034963;28;20048;-74
2022/01/06 14:41:26;;;;;;;13.80;4.53;;;;;;;;;;5036358;28;20077;-70
2022/01/06 14:43:54;;;;;;;12.40;4.15;;;;;;;;;;5036475;28;20052;-71
2022/01/06 14:46:21;;;;;;;19.23;4.43;;;;;;;;;;5036277;28;20404;-74
2022/01/06 14:48:49;;;;;;;10.30;4.05;;;;;;;;;;5036306;28;20099;-70
2022/01/06 14:51:23;;;;;;;16.27;4.10;;;;;;;;;;5036250;28;20045;-76
2022/01/06 14:53:53;;;;;;;12.00;3.67;;;;;;;;;;5036444;28;20045;-71
2022/01/06 14:56:21;;;;;;;9.82;3.25;;;;;;;;;;5036279;28;20128;-75